createdAt,value
2022-08-14T00:01:03.947Z,20.46
2022-08-14T00:03:37.198Z,20.48
2022-08-14T00:06:13.869Z,20.50
2022-08-14T00:08:51.061Z,20.53
2022-08-14T00:11:17.720Z,20.45
2022-08-14T00:13:44.414Z,20.47
2022-08-14T00:16:40.833Z,20.45
2022-08-14T00:19:19.586Z,20.36
2022-08-14T00:21:50.060Z,20.34
2022-08-14T00:24:23.363Z,20.30
2022-08-14T00:27:02.204Z,20.26
2022-08-14T00:29:33.148Z,20.14
2022-08-14T00:33:01.688Z,20.19
2022-08-14T00:34:56.366Z,20.09
2022-08-14T00:37:23.212Z,20.17
2022-08-14T00:39:50.980Z,20.10
2022-08-14T00:42:52.795Z,20.14
2022-08-14T00:45:10.005Z,20.13
2022-08-14T00:47:44.789Z,20.07
2022-08-14T00:50:17.849Z,20.07
2022-08-14T00:52:52.204Z,20.04
2022-08-14T00:55:19.986Z,20.02
2022-08-14T00:58:07.648Z,20.06
2022-08-14T01:00:37.397Z,20.04
2022-08-14T01:03:16.990Z,19.88
2022-08-14T01:06:02.294Z,19.85
2022-08-14T01:08:57.575Z,19.87
2022-08-14T01:12:02.574Z,19.78
2022-08-14T01:14:29.587Z,19.90
2022-08-14T01:16:56.240Z,19.72
2022-08-14T01:19:43.506Z,19.67
2022-08-14T01:22:12.591Z,19.70
2022-08-14T01:24:43.371Z,19.64
2022-08-14T01:27:17.422Z,19.69
2022-08-14T01:30:03.158Z,19.71
2022-08-14T01:32:35.607Z,19.64
2022-08-14T01:35:19.345Z,19.65
2022-08-14T01:37:56.555Z,19.51
2022-08-14T01:40:36.672Z,19.51
2022-08-14T01:43:18.538Z,19.47
2022-08-14T01:46:06.032Z,19.43
2022-08-14T01:48:37.198Z,19.36
2022-08-14T01:51:06.033Z,19.40
2022-08-14T01:53:54.652Z,19.32
2022-08-14T01:56:37.233Z,19.38
2022-08-14T01:59:38.088Z,19.43
2022-08-14T02:02:18.953Z,19.34
2022-08-14T02:04:55.147Z,19.21
2022-08-14T02:07:27.190Z,19.19
2022-08-14T02:10:13.207Z,19.15
2022-08-14T02:12:46.138Z,19.21
2022-08-14T02:15:21.967Z,18.92
2022-08-14T02:17:49.870Z,19.02
2022-08-14T02:20:17.777Z,18.73
2022-08-14T02:22:51.999Z,18.95
2022-08-14T02:25:20.927Z,18.88
2022-08-14T02:28:23.505Z,18.82
2022-08-14T02:30:38.240Z,18.86
2022-08-14T02:33:07.144Z,18.93
2022-08-14T02:35:33.807Z,18.76
2022-08-14T02:38:07.674Z,18.81
2022-08-14T02:40:38.741Z,18.81
2022-08-14T02:43:07.948Z,18.82
2022-08-14T02:45:38.864Z,18.80
2022-08-14T02:49:04.241Z,18.79
2022-08-14T02:51:07.109Z,18.74
2022-08-14T02:53:37.397Z,18.62
2022-08-14T02:56:30.830Z,18.75
2022-08-14T02:58:52.824Z,18.60
2022-08-14T03:01:24.257Z,18.61
2022-08-14T03:03:58.191Z,18.70
2022-08-14T03:06:34.908Z,18.66
2022-08-14T03:09:11.628Z,18.59
2022-08-14T03:11:39.684Z,18.56
2022-08-14T03:14:12.222Z,18.53
2022-08-14T03:16:45.397Z,18.44
2022-08-14T03:19:16.282Z,18.52
2022-08-14T03:21:46.464Z,18.42
2022-08-14T03:24:23.340Z,18.42
2022-08-14T03:26:56.072Z,18.41
2022-08-14T03:29:26.451Z,18.53
2022-08-14T03:31:54.007Z,18.46
2022-08-14T03:34:24.788Z,18.53
2022-08-14T03:37:28.953Z,18.32
2022-08-14T03:39:59.073Z,18.46
2022-08-14T03:42:35.904Z,18.45
2022-08-14T03:45:20.330Z,18.42
2022-08-14T03:47:58.276Z,18.22
2022-08-14T03:50:30.931Z,18.26
2022-08-14T03:53:02.824Z,18.17
2022-08-14T03:55:30.633Z,18.25
2022-08-14T03:57:57.977Z,18.25
2022-08-14T04:00:44.274Z,18.04
2022-08-14T04:03:17.945Z,17.93
2022-08-14T04:05:50.066Z,18.05
2022-08-14T04:08:30.055Z,18.08
2022-08-14T04:10:59.487Z,18.06
2022-08-14T04:13:31.695Z,18.06
2022-08-14T04:16:06.816Z,18.00
2022-08-14T04:18:42.489Z,17.98
2022-08-14T04:21:10.299Z,17.94
2022-08-14T04:23:37.407Z,17.98
2022-08-14T04:26:14.926Z,17.95
2022-08-14T04:29:08.649Z,17.83
2022-08-14T04:33:02.299Z,17.76
2022-08-14T04:34:28.276Z,17.91
2022-08-14T04:37:22.099Z,17.86
2022-08-14T04:40:10.541Z,17.77
2022-08-14T04:42:56.109Z,17.70
2022-08-14T04:45:23.978Z,17.87
2022-08-14T04:48:12.766Z,17.84
2022-08-14T04:50:54.089Z,17.87
2022-08-14T04:53:34.911Z,17.80
2022-08-14T04:56:03.335Z,17.90
2022-08-14T04:58:34.145Z,17.90
2022-08-14T05:01:02.843Z,17.86
2022-08-14T05:03:33.177Z,17.76
2022-08-14T05:06:01.966Z,17.83
2022-08-14T05:08:31.952Z,17.92
2022-08-14T05:11:19.207Z,17.93
2022-08-14T05:14:33.803Z,17.99
2022-08-14T05:16:33.101Z,18.04
2022-08-14T05:19:18.037Z,18.02
2022-08-14T05:21:57.281Z,17.99
2022-08-14T05:24:27.216Z,17.98
2022-08-14T05:26:54.160Z,18.05
2022-08-14T05:29:21.754Z,18.02
2022-08-14T05:31:48.893Z,18.11
2022-08-14T05:34:17.331Z,18.20
2022-08-14T05:36:50.506Z,18.30
2022-08-14T05:39:28.420Z,18.31
2022-08-14T05:41:54.893Z,18.14
2022-08-14T05:44:22.138Z,18.29
2022-08-14T05:46:48.874Z,18.43
2022-08-14T05:49:16.151Z,18.54
2022-08-14T05:51:46.658Z,18.64
2022-08-14T05:54:13.927Z,18.66
2022-08-14T05:56:54.249Z,18.72
2022-08-14T05:59:36.637Z,18.79
2022-08-14T06:02:06.653Z,18.89
2022-08-14T06:04:33.140Z,18.97
2022-08-14T06:06:59.609Z,19.02
2022-08-14T06:09:26.023Z,19.07
2022-08-14T06:11:53.070Z,19.19
2022-08-14T06:14:23.970Z,19.23
2022-08-14T06:16:52.928Z,19.36
2022-08-14T06:19:19.593Z,19.43
2022-08-14T06:21:46.410Z,19.51
2022-08-14T06:24:18.041Z,19.66
2022-08-14T06:26:54.085Z,19.80
2022-08-14T06:29:23.046Z,19.88
2022-08-14T06:32:00.315Z,19.99
2022-08-14T06:35:02.225Z,20.07
2022-08-14T06:37:13.637Z,20.08
2022-08-14T06:39:44.252Z,20.16
2022-08-14T06:42:22.331Z,20.24
2022-08-14T06:44:57.886Z,20.33
2022-08-14T06:47:24.906Z,20.40
2022-08-14T06:49:56.037Z,20.48
2022-08-14T06:52:24.834Z,20.57
2022-08-14T06:54:51.504Z,20.61
2022-08-14T06:57:18.850Z,20.64
2022-08-14T06:59:48.157Z,20.72
2022-08-14T07:02:35.972Z,20.80
2022-08-14T07:05:23.573Z,20.88
2022-08-14T07:07:51.160Z,20.96
2022-08-14T07:10:17.701Z,21.05
2022-08-14T07:12:54.373Z,21.15
2022-08-14T07:15:29.305Z,21.21
2022-08-14T07:17:55.919Z,21.32
2022-08-14T07:20:31.076Z,21.39
2022-08-14T07:23:07.905Z,21.54
2022-08-14T07:25:42.055Z,21.66
2022-08-14T07:28:20.385Z,21.77
2022-08-14T07:30:51.181Z,21.85
2022-08-14T07:33:20.907Z,21.90
2022-08-14T07:35:58.593Z,22.01
2022-08-14T07:38:32.106Z,22.09
2022-08-14T07:41:11.706Z,22.13
2022-08-14T07:43:42.533Z,22.23
2022-08-14T07:46:10.754Z,22.31
2022-08-14T07:48:43.809Z,22.38
2022-08-14T07:51:11.353Z,22.38
2022-08-14T07:53:40.404Z,22.49
2022-08-14T07:56:21.491Z,22.57
2022-08-14T07:58:54.198Z,22.64
2022-08-14T08:01:26.212Z,22.72
2022-08-14T08:03:59.431Z,22.75
2022-08-14T08:06:26.826Z,22.79
2022-08-14T08:09:00.954Z,22.90
2022-08-14T08:11:34.947Z,23.00
2022-08-14T08:14:17.273Z,23.04
2022-08-14T08:16:46.406Z,23.09
2022-08-14T08:19:14.179Z,23.19
2022-08-14T08:21:43.826Z,23.31
2022-08-14T08:24:12.412Z,23.44
2022-08-14T08:26:41.734Z,23.48
2022-08-14T08:29:09.483Z,23.57
2022-08-14T08:31:51.925Z,23.65
2022-08-14T08:34:20.805Z,23.71
2022-08-14T08:36:50.876Z,23.77
2022-08-14T08:39:22.415Z,23.90
2022-08-14T08:41:53.658Z,23.96
2022-08-14T08:44:32.678Z,24.01
2022-08-14T08:47:05.792Z,24.15
2022-08-14T08:49:48.862Z,24.17
2022-08-14T08:52:31.778Z,24.18
2022-08-14T08:54:59.675Z,24.34
2022-08-14T08:57:27.604Z,24.40
2022-08-14T08:59:55.000Z,24.52
2022-08-14T09:02:26.125Z,24.60
2022-08-14T09:05:02.091Z,24.73
2022-08-14T09:07:28.543Z,24.93
2022-08-14T09:09:59.313Z,25.02
2022-08-14T09:12:31.521Z,25.03
2022-08-14T09:15:00.839Z,25.13
2022-08-14T09:17:28.105Z,25.39
2022-08-14T09:19:55.189Z,25.51
2022-08-14T09:22:43.300Z,25.50
2022-08-14T09:25:10.168Z,25.55
2022-08-14T09:27:38.106Z,25.52
2022-08-14T09:30:30.998Z,25.50
2022-08-14T09:33:12.427Z,25.65
2022-08-14T09:36:18.697Z,25.77
2022-08-14T09:39:05.361Z,25.91
2022-08-14T09:42:21.537Z,26.09
2022-08-14T09:45:07.944Z,26.17
2022-08-14T09:47:49.082Z,26.23
2022-08-14T09:50:25.974Z,26.29
2022-08-14T09:52:59.912Z,26.40
2022-08-14T09:55:36.809Z,26.57
2022-08-14T09:58:19.111Z,26.78
2022-08-14T10:01:00.546Z,26.84
2022-08-14T10:03:33.860Z,26.87
2022-08-14T10:06:19.237Z,26.95
2022-08-14T10:08:52.591Z,27.14
2022-08-14T10:11:24.319Z,27.20
2022-08-14T10:13:57.093Z,27.27
2022-08-14T10:16:33.088Z,27.28
2022-08-14T10:19:15.875Z,27.34
2022-08-14T10:23:14.876Z,27.42
2022-08-14T10:24:50.986Z,27.47
2022-08-14T10:27:26.593Z,27.61
2022-08-14T10:29:58.139Z,27.64
2022-08-14T10:32:36.072Z,27.81
2022-08-14T10:35:14.583Z,27.88
2022-08-14T10:37:52.899Z,28.07
2022-08-14T10:40:44.213Z,28.08
2022-08-14T10:43:26.041Z,27.97
2022-08-14T10:46:04.196Z,27.88
2022-08-14T10:48:56.794Z,28.01
2022-08-14T10:51:30.007Z,28.02
2022-08-14T10:54:01.856Z,28.12
2022-08-14T10:56:44.545Z,28.21
2022-08-14T10:59:11.251Z,27.90
2022-08-14T11:01:41.254Z,27.59
2022-08-14T11:04:19.752Z,27.31
2022-08-14T11:06:53.432Z,27.50
2022-08-14T11:09:20.034Z,27.69
2022-08-14T11:11:55.369Z,27.65
2022-08-14T11:14:23.062Z,27.51
2022-08-14T11:16:54.048Z,27.78
2022-08-14T11:19:25.076Z,28.08
2022-08-14T11:21:55.427Z,28.37
2022-08-14T11:24:50.713Z,28.32
2022-08-14T11:27:19.117Z,28.30
2022-08-14T11:29:52.846Z,28.01
2022-08-14T11:32:28.134Z,27.70
2022-08-14T11:34:58.174Z,27.51
2022-08-14T11:37:39.379Z,27.77
2022-08-14T11:40:16.134Z,28.22
2022-08-14T11:42:57.422Z,28.48
2022-08-14T11:45:29.841Z,28.65
2022-08-14T11:48:13.239Z,28.90
2022-08-14T11:50:43.775Z,29.11
2022-08-14T11:53:31.387Z,29.29
2022-08-14T11:56:06.097Z,29.40
2022-08-14T11:58:34.004Z,29.46
2022-08-14T12:01:07.812Z,29.55
2022-08-14T12:03:51.535Z,29.50
2022-08-14T12:06:29.772Z,29.45
2022-08-14T12:09:08.754Z,29.47
2022-08-14T12:11:47.027Z,29.33
2022-08-14T12:14:31.067Z,29.33
2022-08-14T12:17:12.187Z,29.51
2022-08-14T12:19:45.466Z,29.64
2022-08-14T12:22:12.165Z,29.74
2022-08-14T12:24:52.399Z,29.47
2022-08-14T12:27:19.551Z,29.51
2022-08-14T12:29:55.135Z,29.58
2022-08-14T12:32:21.553Z,29.65
2022-08-14T12:34:54.323Z,29.82
2022-08-14T12:37:30.431Z,29.98
2022-08-14T12:40:12.606Z,29.72
2022-08-14T12:42:52.594Z,29.69
2022-08-14T12:45:31.229Z,29.77
2022-08-14T12:48:21.788Z,29.83
2022-08-14T12:50:54.217Z,30.04
2022-08-14T12:53:20.942Z,30.18
2022-08-14T12:56:18.837Z,30.26
2022-08-14T12:58:52.755Z,29.88
2022-08-14T13:01:28.426Z,29.95
2022-08-14T13:04:08.280Z,30.11
2022-08-14T13:06:37.889Z,30.20
2022-08-14T13:09:07.801Z,30.34
2022-08-14T13:11:44.954Z,30.34
2022-08-14T13:14:17.617Z,30.25
2022-08-14T13:16:45.623Z,30.25
2022-08-14T13:19:18.394Z,30.13
2022-08-14T13:22:05.314Z,29.97
2022-08-14T13:24:37.521Z,29.74
2022-08-14T13:27:05.526Z,29.65
2022-08-14T13:29:39.687Z,29.77
2022-08-14T13:32:09.237Z,29.81
2022-08-14T13:34:37.495Z,29.99
2022-08-14T13:37:07.091Z,30.06
2022-08-14T13:39:36.251Z,30.19
2022-08-14T13:42:08.042Z,30.14
2022-08-14T13:44:36.050Z,30.17
2022-08-14T13:47:06.525Z,30.15
2022-08-14T13:49:37.434Z,30.17
2022-08-14T13:52:48.154Z,30.14
2022-08-14T13:54:55.549Z,29.88
2022-08-14T13:57:30.245Z,29.57
2022-08-14T14:00:02.612Z,29.39
2022-08-14T14:02:41.167Z,29.30
2022-08-14T14:05:18.737Z,29.34
2022-08-14T14:07:50.658Z,29.40
2022-08-14T14:10:28.030Z,29.45
2022-08-14T14:12:56.445Z,29.49
2022-08-14T14:15:28.632Z,29.53
2022-08-14T14:18:15.235Z,29.51
2022-08-14T14:20:57.492Z,29.41
2022-08-14T14:23:23.979Z,29.44
2022-08-14T14:25:57.447Z,29.45
2022-08-14T14:28:31.336Z,29.37
2022-08-14T14:31:07.095Z,29.32
2022-08-14T14:33:47.064Z,29.33
2022-08-14T14:36:22.075Z,29.21
2022-08-14T14:39:03.266Z,29.08
2022-08-14T14:41:37.571Z,28.95
2022-08-14T14:44:13.710Z,28.89
2022-08-14T14:46:49.541Z,28.79
2022-08-14T14:49:18.323Z,28.71
2022-08-14T14:51:51.579Z,28.57
2022-08-14T14:54:31.183Z,28.44
2022-08-14T14:57:03.455Z,28.37
2022-08-14T14:59:33.450Z,28.38
2022-08-14T15:02:09.275Z,28.38
2022-08-14T15:04:43.873Z,28.40
2022-08-14T15:07:12.588Z,28.40
2022-08-14T15:09:40.171Z,28.41
2022-08-14T15:12:28.158Z,28.36
2022-08-14T15:14:57.978Z,28.38
2022-08-14T15:17:28.577Z,28.33
2022-08-14T15:20:04.258Z,28.31
2022-08-14T15:22:31.262Z,28.27
2022-08-14T15:24:57.774Z,28.28
2022-08-14T15:27:26.497Z,28.25
2022-08-14T15:29:53.530Z,28.26
2022-08-14T15:32:23.116Z,28.24
2022-08-14T15:34:51.900Z,28.20
2022-08-14T15:37:22.094Z,28.24
2022-08-14T15:39:49.895Z,28.22
2022-08-14T15:42:20.474Z,28.21
2022-08-14T15:44:57.507Z,28.16
2022-08-14T15:47:28.126Z,28.14
2022-08-14T15:49:58.396Z,28.16
2022-08-14T15:52:32.086Z,28.11
2022-08-14T15:55:03.498Z,28.06
2022-08-14T15:57:31.090Z,28.02
2022-08-14T16:00:43.449Z,27.99
2022-08-14T16:03:12.563Z,27.93
2022-08-14T16:05:42.026Z,27.89
2022-08-14T16:08:29.034Z,27.87
2022-08-14T16:10:56.868Z,27.87
2022-08-14T16:13:41.742Z,27.83
2022-08-14T16:16:34.655Z,27.80
2022-08-14T16:19:07.458Z,27.77
2022-08-14T16:21:39.190Z,27.77
2022-08-14T16:24:06.628Z,27.83
2022-08-14T16:26:33.894Z,27.81
2022-08-14T16:29:07.356Z,27.80
2022-08-14T16:31:36.676Z,27.79
2022-08-14T16:34:44.618Z,27.77
2022-08-14T16:36:51.210Z,27.73
2022-08-14T16:39:17.882Z,27.74
2022-08-14T16:41:45.680Z,27.68
2022-08-14T16:44:21.823Z,27.64
2022-08-14T16:47:01.191Z,27.61
2022-08-14T16:49:35.334Z,27.60
2022-08-14T16:52:25.948Z,27.58
2022-08-14T16:55:07.778Z,27.56
2022-08-14T16:57:46.298Z,27.53
2022-08-14T17:00:33.065Z,27.44
2022-08-14T17:03:11.671Z,27.42
2022-08-14T17:05:46.879Z,27.38
2022-08-14T17:08:32.053Z,27.33
2022-08-14T17:11:09.942Z,27.26
2022-08-14T17:13:59.020Z,27.23
2022-08-14T17:16:37.370Z,27.17
2022-08-14T17:19:05.914Z,27.14
2022-08-14T17:21:41.659Z,27.13
2022-08-14T17:24:55.849Z,27.10
2022-08-14T17:27:00.121Z,27.06
2022-08-14T17:29:32.791Z,27.05
2022-08-14T17:32:06.891Z,27.02
2022-08-14T17:34:53.827Z,27.01
2022-08-14T17:37:28.657Z,27.00
2022-08-14T17:40:15.355Z,26.95
2022-08-14T17:42:51.613Z,26.89
2022-08-14T17:45:26.739Z,26.84
2022-08-14T17:47:56.940Z,26.76
2022-08-14T17:50:58.685Z,26.76
2022-08-14T17:53:27.515Z,26.75
2022-08-14T17:56:01.916Z,26.75
2022-08-14T17:58:38.565Z,26.72
2022-08-14T18:01:13.025Z,26.66
2022-08-14T18:03:46.720Z,26.62
2022-08-14T18:06:38.426Z,26.60
2022-08-14T18:09:08.436Z,26.51
2022-08-14T18:12:01.336Z,26.48
2022-08-14T18:14:32.018Z,26.47
2022-08-14T18:17:00.291Z,26.37
2022-08-14T18:19:29.163Z,26.36
2022-08-14T18:22:00.128Z,26.30
2022-08-14T18:24:31.937Z,26.25
2022-08-14T18:27:14.836Z,26.23
2022-08-14T18:29:56.242Z,26.20
2022-08-14T18:32:27.166Z,26.14
2022-08-14T18:35:11.159Z,26.05
2022-08-14T18:37:41.108Z,26.01
2022-08-14T18:40:22.460Z,25.94
2022-08-14T18:43:03.418Z,25.90
2022-08-14T18:45:33.511Z,25.89
2022-08-14T18:48:18.722Z,25.85
2022-08-14T18:51:06.116Z,25.82
2022-08-14T18:53:55.609Z,25.77
2022-08-14T18:57:01.185Z,25.74
2022-08-14T18:59:35.495Z,25.72
2022-08-14T19:02:30.518Z,25.66
2022-08-14T19:04:59.617Z,25.60
2022-08-14T19:07:33.892Z,25.59
2022-08-14T19:10:10.163Z,25.54
2022-08-14T19:12:52.785Z,25.53
2022-08-14T19:15:21.332Z,25.43
2022-08-14T19:18:14.692Z,25.34
2022-08-14T19:20:52.729Z,25.38
2022-08-14T19:23:42.380Z,25.31
2022-08-14T19:26:36.932Z,25.34
2022-08-14T19:29:23.410Z,25.33
2022-08-14T19:31:55.822Z,25.24
2022-08-14T19:34:36.121Z,25.18
2022-08-14T19:37:06.508Z,25.22
2022-08-14T19:39:56.377Z,25.06
2022-08-14T19:42:28.056Z,24.97
2022-08-14T19:44:57.260Z,25.05
2022-08-14T19:47:38.810Z,24.98
2022-08-14T19:50:31.120Z,24.86
2022-08-14T19:53:11.205Z,24.88
2022-08-14T19:55:39.306Z,24.83
2022-08-14T19:58:12.816Z,24.75
2022-08-14T20:00:51.753Z,24.71
2022-08-14T20:03:24.188Z,24.63
2022-08-14T20:06:03.105Z,24.52
2022-08-14T20:09:05.914Z,24.48
2022-08-14T20:12:00.830Z,24.37
2022-08-14T20:14:28.033Z,24.33
2022-08-14T20:17:03.277Z,24.27
2022-08-14T20:19:37.276Z,24.22
2022-08-14T20:22:37.097Z,24.23
2022-08-14T20:24:54.023Z,24.26
2022-08-14T20:27:40.792Z,24.06
2022-08-14T20:30:34.726Z,24.09
2022-08-14T20:33:11.248Z,23.98
2022-08-14T20:35:52.224Z,23.91
2022-08-14T20:38:29.082Z,23.81
2022-08-14T20:41:10.562Z,23.88
2022-08-14T20:43:59.802Z,23.81
2022-08-14T20:46:38.597Z,23.84
2022-08-14T20:49:16.464Z,23.71
2022-08-14T20:51:58.470Z,23.72
2022-08-14T20:54:34.151Z,23.72
2022-08-14T20:57:11.335Z,23.68
2022-08-14T20:59:43.473Z,23.65
2022-08-14T21:02:30.535Z,23.59
2022-08-14T21:05:04.466Z,23.60
2022-08-14T21:07:44.428Z,23.53
2022-08-14T21:10:35.298Z,23.46
2022-08-14T21:14:08.773Z,23.39
2022-08-14T21:15:58.096Z,23.42
2022-08-14T21:18:35.128Z,23.44
2022-08-14T21:21:18.386Z,23.39
2022-08-14T21:23:55.266Z,23.38
2022-08-14T21:26:33.347Z,23.32
2022-08-14T21:29:14.099Z,23.27
2022-08-14T21:31:41.822Z,23.23
2022-08-14T21:34:31.109Z,23.05
2022-08-14T21:37:07.903Z,23.16
2022-08-14T21:39:37.057Z,23.07
2022-08-14T21:42:05.784Z,23.03
2022-08-14T21:44:42.950Z,23.05
2022-08-14T21:47:12.102Z,22.94
2022-08-14T21:49:40.260Z,22.99
2022-08-14T21:52:50.619Z,22.86
2022-08-14T21:55:08.532Z,22.81
2022-08-14T21:58:45.313Z,22.70
2022-08-14T22:00:35.009Z,22.78
2022-08-14T22:03:06.474Z,22.64
2022-08-14T22:05:37.559Z,22.65
2022-08-14T22:08:06.497Z,22.70
2022-08-14T22:10:34.054Z,22.71
2022-08-14T22:13:01.793Z,22.69
2022-08-14T22:15:30.087Z,22.61
2022-08-14T22:17:58.381Z,22.51
2022-08-14T22:20:28.295Z,22.54
2022-08-14T22:23:00.367Z,22.47
2022-08-14T22:25:32.908Z,22.50
2022-08-14T22:28:01.225Z,22.52
2022-08-14T22:30:27.705Z,22.39
2022-08-14T22:32:57.522Z,22.33
2022-08-14T22:35:24.745Z,22.39
2022-08-14T22:38:36.417Z,22.44
2022-08-14T22:41:01.324Z,22.36
2022-08-14T22:43:27.541Z,22.31
2022-08-14T22:45:57.829Z,22.34
2022-08-14T22:48:29.364Z,22.30
2022-08-14T22:50:56.149Z,22.27
2022-08-14T22:53:24.059Z,22.29
2022-08-14T22:55:56.596Z,22.27
2022-08-14T22:58:30.308Z,22.27
2022-08-14T23:01:00.093Z,22.32
2022-08-14T23:03:28.808Z,22.27
2022-08-14T23:05:55.556Z,22.28
2022-08-14T23:08:59.739Z,22.27
2022-08-14T23:11:10.344Z,22.15
2022-08-14T23:13:39.588Z,22.07
2022-08-14T23:16:08.292Z,22.19
2022-08-14T23:18:37.066Z,22.27
2022-08-14T23:21:03.776Z,22.25
2022-08-14T23:23:30.957Z,22.09
2022-08-14T23:26:46.900Z,22.12
2022-08-14T23:28:58.254Z,22.09
2022-08-14T23:31:34.583Z,22.01
2022-08-14T23:34:08.010Z,21.94
2022-08-14T23:36:54.132Z,22.10
2022-08-14T23:39:30.280Z,22.11
2022-08-14T23:42:04.432Z,22.07
2022-08-14T23:44:35.262Z,22.13
2022-08-14T23:47:03.548Z,22.25
2022-08-14T23:49:49.700Z,22.09
2022-08-14T23:52:50.272Z,22.02
2022-08-14T23:55:11.088Z,22.03
2022-08-14T23:57:38.121Z,22.08
